Terminal Aerodrome Forecast
Issued by NWS

Home | Current Version | Previous Version | Text Only | Print | Product List | Glossary On
Versions: 1 2 3 4 5 6 7 8 9 10 11 12 13 14 15 16 17 18 19 20 21 22 23 24 25 26 27 28 29 30
000
FTUS45 KGJT 281731 AAC
TAFASE
TAF AMD
KASE 281731Z 2818/2918 33008G15KT 3SM -SHRASN OVC020
     FM282000 30010KT P6SM VCSH SCT030 BKN050
      TEMPO 2820/2824 4SM -SHRASN OVC030
     FM290000 25006KT 4SM -SHRASN OVC030
     FM290300 12004KT 5SM -SHSN OVC030
     FM291700 26008KT 4SM -SHSN OVC020=

USA.gov is the U.S. government's official web portal to all federal, state and local government web resources and services.